Time;durP1;ratioP1;P1;durP2;ratioP2;P2;SDS_P1;SDS_P2;PMS_P1;PMS_P2;Temp;Humidity;BMP_temperature;BMP_pressure;BME280_temperature;BME280_humidity;BME280_pressure;Samples;Min_cycle;Max_cycle;Signal;HPM_P1;HPM_P2
2021/04/11 00:01:09;;;;;;;77.40;41.07;;;;;;;5.75;63.26;100283.77;115154;1202;23117;-55
2021/04/11 00:03:37;;;;;;;71.25;37.95;;;;;;;5.72;63.53;100287.41;115128;1202;23141;-56
2021/04/11 00:06:06;;;;;;;65.70;35.83;;;;;;;5.66;63.42;100276.13;115093;1202;23117;-55
2021/04/11 00:08:35;;;;;;;74.23;36.93;;;;;;;5.62;63.51;100280.22;115264;1200;23582;-54
2021/04/11 00:11:05;;;;;;;71.95;35.55;;;;;;;5.58;63.45;100268.48;115087;1202;26022;-52
2021/04/11 00:13:37;;;;;;;64.10;34.30;;;;;;;5.54;63.52;100260.30;115130;1202;23111;-55
2021/04/11 00:16:07;;;;;;;71.40;34.85;;;;;;;5.53;63.70;100260.72;115068;1202;23125;-53
2021/04/11 00:18:37;;;;;;;67.90;33.25;;;;;;;5.52;63.66;100246.13;115143;1202;27192;-57
2021/04/11 00:21:06;;;;;;;69.90;33.87;;;;;;;5.48;63.66;100239.89;114809;1200;23132;-56
2021/04/11 00:23:35;;;;;;;65.85;33.55;;;;;;;5.44;64.03;100247.55;115113;1202;23144;-57
2021/04/11 00:26:06;;;;;;;65.95;32.30;;;;;;;5.40;64.04;100238.58;115237;1202;27230;-58
2021/04/11 00:28:35;;;;;;;56.80;29.67;;;;;;;5.34;64.26;100243.13;115147;1202;26128;-55
2021/04/11 00:31:04;;;;;;;58.65;30.10;;;;;;;5.29;64.39;100249.23;115083;1202;23146;-53
2021/04/11 00:33:36;;;;;;;64.40;33.37;;;;;;;5.24;65.08;100241.47;115153;1202;23256;-53
2021/04/11 00:36:08;;;;;;;65.65;33.00;;;;;;;5.10;65.11;100247.45;115147;1202;25990;-57
2021/04/11 00:38:37;;;;;;;64.40;31.40;;;;;;;4.98;65.11;100245.45;115131;1200;23278;-58
2021/04/11 00:41:14;;;;;;;62.38;31.23;;;;;;;4.79;65.44;100251.93;115124;1202;24713;-57
2021/04/11 00:43:43;;;;;;;61.63;29.97;;;;;;;4.66;65.26;100254.66;115117;1202;23103;-53
2021/04/11 00:46:22;;;;;;;55.47;30.73;;;;;;;4.61;65.08;100240.61;115127;1202;23139;-56
2021/04/11 00:48:51;;;;;;;58.75;29.90;;;;;;;4.57;65.30;100239.94;114717;1202;23122;-52
2021/04/11 00:51:25;;;;;;;58.90;30.45;;;;;;;4.54;65.33;100240.80;115172;1202;23122;-56
2021/04/11 00:53:59;;;;;;;56.83;29.60;;;;;;;4.55;64.91;100240.36;115259;1202;23118;-56
2021/04/11 00:56:28;;;;;;;52.80;27.67;;;;;;;4.53;64.80;100225.45;115188;1202;23117;-57
2021/04/11 00:58:57;;;;;;;61.33;27.60;;;;;;;4.53;64.85;100230.97;115127;1203;23137;-54
2021/04/11 01:01:26;;;;;;;61.53;26.73;;;;;;;4.54;65.02;100238.04;115108;1202;23214;-56
2021/04/11 01:03:55;;;;;;;54.15;28.65;;;;;;;4.53;65.02;100230.97;115022;1202;23155;-57
2021/04/11 01:06:27;;;;;;;55.90;27.20;;;;;;;4.50;64.93;100229.07;114731;1202;23263;-56
2021/04/11 01:08:56;;;;;;;55.73;26.47;;;;;;;4.48;65.18;100231.50;115316;1202;23250;-56
2021/04/11 01:11:30;;;;;;;57.63;28.83;;;;;;;4.44;65.18;100226.08;114858;1202;23124;-55
2021/04/11 01:14:01;;;;;;;56.30;29.20;;;;;;;4.41;65.09;100215.88;114823;1202;23118;-56
2021/04/11 01:16:31;;;;;;;55.85;27.15;;;;;;;4.40;64.98;100221.86;114942;1202;26099;-55
2021/04/11 01:19:00;;;;;;;63.30;30.00;;;;;;;4.35;65.28;100214.88;115256;1202;23150;-58
2021/04/11 01:21:38;;;;;;;53.63;28.27;;;;;;;4.31;65.39;100216.96;115200;1202;23114;-54
2021/04/11 01:24:25;;;;;;;51.05;26.45;;;;;;;4.28;65.33;100217.06;115067;1202;23121;-55
2021/04/11 01:26:55;;;;;;;60.70;28.70;;;;;;;4.24;65.24;100219.16;115062;1200;23128;-54
2021/04/11 01:29:24;;;;;;;53.30;27.20;;;;;;;4.19;65.24;100205.86;115175;1199;25979;-56
2021/04/11 01:31:53;;;;;;;54.07;26.77;;;;;;;4.17;65.42;100208.28;115202;1202;26248;-55
2021/04/11 01:34:21;;;;;;;55.30;26.00;;;;;;;4.14;65.48;100211.94;115057;1202;27205;-55
2021/04/11 01:36:51;;;;;;;52.00;27.00;;;;;;;4.13;65.41;100202.08;115086;1201;27226;-64
2021/04/11 01:39:23;;;;;;;55.20;27.70;;;;;;;4.12;65.38;100200.55;115132;1202;23256;-56
2021/04/11 01:41:53;;;;;;;48.50;24.85;;;;;;;4.12;65.43;100195.02;115116;1202;23114;-55
2021/04/11 01:44:25;;;;;;;56.33;26.37;;;;;;;4.12;65.58;100190.25;115194;1202;23114;-56
2021/04/11 01:46:55;;;;;;;54.50;24.75;;;;;;;4.12;65.31;100187.48;115134;1202;23137;-55
2021/04/11 01:49:27;;;;;;;49.90;24.60;;;;;;;4.12;65.33;100189.49;115155;1202;29402;-56
2021/04/11 01:51:59;;;;;;;58.40;27.00;;;;;;;4.09;65.16;100189.16;115183;1202;23268;-54
2021/04/11 01:54:32;;;;;;;53.30;26.20;;;;;;;4.09;65.34;100182.85;115178;1202;26536;-56
2021/04/11 01:57:06;;;;;;;55.20;25.60;;;;;;;4.08;65.29;100182.06;115221;1202;23124;-55
2021/04/11 01:59:36;;;;;;;52.85;26.00;;;;;;;4.07;65.21;100182.52;115104;1202;27268;-56
2021/04/11 02:02:07;;;;;;;53.20;26.05;;;;;;;4.02;65.30;100177.50;115244;1203;26357;-57
2021/04/11 02:04:36;;;;;;;58.80;27.90;;;;;;;3.98;65.14;100174.84;115192;1202;23131;-59
2021/04/11 02:07:08;;;;;;;56.07;27.40;;;;;;;3.94;65.55;100185.22;115095;1200;27192;-56
2021/04/11 02:09:41;;;;;;;50.13;26.13;;;;;;;3.90;66.04;100184.54;115167;1202;23114;-56
2021/04/11 02:12:12;;;;;;;51.87;25.20;;;;;;;3.84;65.75;100183.52;115283;1200;23253;-58
2021/04/11 02:14:42;;;;;;;52.10;27.87;;;;;;;3.82;65.74;100185.16;115151;1202;23118;-55
2021/04/11 02:17:11;;;;;;;;;;;;;;;3.80;65.84;100180.08;115330;1205;24609;-54
2021/04/11 02:19:40;;;;;;;57.07;27.07;;;;;;;3.77;65.61;100175.41;115281;1201;21610;-58
2021/04/11 02:22:15;;;;;;;50.40;26.17;;;;;;;3.75;65.84;100172.31;115359;1200;23123;-56
2021/04/11 02:24:47;;;;;;;58.27;27.00;;;;;;;3.71;65.61;100168.86;115131;1200;23149;-53
2021/04/11 02:27:18;;;;;;;55.20;26.95;;;;;;;3.67;65.79;100173.70;114710;1202;23263;-53
2021/04/11 02:29:48;;;;;;;55.37;26.40;;;;;;;3.62;66.31;100176.98;115224;1202;23261;-56
2021/04/11 02:32:17;;;;;;;53.15;24.80;;;;;;;3.57;66.58;100176.73;115048;1202;26358;-57
2021/04/11 02:34:46;;;;;;;55.55;27.15;;;;;;;3.52;66.27;100174.52;115182;1202;23130;-54
2021/04/11 02:37:20;;;;;;;53.45;25.55;;;;;;;3.49;66.39;100170.63;115148;1202;23122;-56
2021/04/11 02:39:49;;;;;;;52.57;25.80;;;;;;;3.47;66.05;100173.05;114754;1200;23571;-56
2021/04/11 02:42:21;;;;;;;47.70;23.00;;;;;;;3.47;65.98;100173.05;115048;1201;23202;-56
2021/04/11 02:44:55;;;;;;;56.23;24.27;;;;;;;3.48;66.15;100171.83;114883;1202;26226;-53
2021/04/11 02:47:24;;;;;;;50.60;25.60;;;;;;;3.47;66.11;100167.53;115168;1202;23183;-57
2021/04/11 02:49:54;;;;;;;49.55;23.35;;;;;;;3.47;65.96;100170.29;115095;1202;23135;-56
2021/04/11 02:52:26;;;;;;;47.37;23.93;;;;;;;3.47;66.02;100166.74;115084;1202;23250;-53
2021/04/11 02:54:56;;;;;;;49.57;24.93;;;;;;;3.47;65.95;100158.47;114997;1202;23148;-55
2021/04/11 02:57:25;;;;;;;58.20;27.40;;;;;;;3.46;66.23;100162.42;115163;1202;23120;-56
2021/04/11 02:59:54;;;;;;;55.25;26.95;;;;;;;3.43;66.05;100164.08;115201;1200;23115;-54
2021/04/11 03:02:24;;;;;;;54.45;25.70;;;;;;;3.40;66.24;100155.88;115114;1201;23480;-56
2021/04/11 03:04:55;;;;;;;48.80;25.77;;;;;;;3.31;66.52;100159.23;115075;1200;23594;-57
2021/04/11 03:07:29;;;;;;;50.60;25.90;;;;;;;3.21;66.38;100154.76;115148;1202;26247;-54
2021/04/11 03:10:03;;;;;;;53.15;26.35;;;;;;;3.16;66.85;100152.53;115083;1202;23256;-54
2021/04/11 03:12:31;;;;;;;55.50;26.03;;;;;;;3.10;66.58;100148.74;115178;1199;23262;-54
2021/04/11 03:15:01;;;;;;;53.50;26.60;;;;;;;3.08;66.61;100143.63;114994;1202;23139;-57
2021/04/11 03:17:31;;;;;;;55.60;26.15;;;;;;;3.02;66.68;100144.60;114963;1199;23111;-56
2021/04/11 03:20:05;;;;;;;53.35;26.15;;;;;;;2.97;66.61;100147.86;115047;1200;23689;-57
2021/04/11 03:22:35;;;;;;;50.40;26.20;;;;;;;2.91;66.68;100149.58;115036;1202;23273;-58
2021/04/11 03:25:06;;;;;;;50.68;26.00;;;;;;;2.90;66.74;100136.98;115133;1198;23087;-58
2021/04/11 03:27:40;;;;;;;48.95;24.85;;;;;;;2.88;66.57;100137.42;115135;1200;23268;-59
2021/04/11 03:30:15;;;;;;;54.40;25.70;;;;;;;2.88;66.77;100134.66;115066;1202;23273;-60
2021/04/11 03:32:48;;;;;;;56.30;25.45;;;;;;;2.89;66.68;100136.23;115168;1199;23115;-57
2021/04/11 03:35:21;;;;;;;47.30;23.95;;;;;;;2.87;66.62;100132.34;115767;1163;23047;-55
2021/04/11 03:37:53;;;;;;;48.23;24.00;;;;;;;2.87;66.64;100137.86;115479;1199;23107;-52
2021/04/11 03:40:25;;;;;;;46.67;24.23;;;;;;;2.87;66.64;100132.34;115585;1199;23135;-55
2021/04/11 03:43:00;;;;;;;52.70;24.50;;;;;;;2.87;66.65;100129.59;115601;1200;27698;-54
2021/04/11 03:45:31;;;;;;;47.07;23.93;;;;;;;2.87;66.65;100133.13;115645;1199;23128;-54
2021/04/11 03:48:08;;;;;;;55.87;26.23;;;;;;;2.85;67.20;100116.24;115686;1198;26830;-55
2021/04/11 03:50:42;;;;;;;54.40;24.15;;;;;;;2.83;67.05;100128.90;115387;1199;23116;-55
2021/04/11 03:53:16;;;;;;;52.30;26.93;;;;;;;2.84;67.08;100119.41;115424;1199;23580;-56
2021/04/11 03:55:48;;;;;;;53.33;26.83;;;;;;;2.82;67.05;100117.09;115636;1200;27372;-54
2021/04/11 03:58:22;;;;;;;50.05;24.50;;;;;;;2.83;67.08;100117.88;115566;1199;26434;-58
2021/04/11 04:00:54;;;;;;;48.60;24.55;;;;;;;2.84;67.03;100124.92;115550;1200;23250;-56
2021/04/11 04:03:28;;;;;;;57.10;25.65;;;;;;;2.80;67.06;100119.50;115506;1200;23139;-52
2021/04/11 04:06:03;;;;;;;51.60;24.60;;;;;;;2.79;67.20;100119.94;115562;1200;23340;-53
2021/04/11 04:08:32;;;;;;;54.15;25.40;;;;;;;2.80;67.14;100115.95;115561;1202;23180;-56
2021/04/11 04:11:13;;;;;;;50.45;24.10;;;;;;;2.80;67.21;100118.72;115474;1200;26324;-53
2021/04/11 04:14:00;;;;;;;52.65;24.25;;;;;;;2.80;67.95;100119.50;115595;1199;23321;-53
2021/04/11 04:16:45;;;;;;;55.93;25.73;;;;;;;2.79;68.05;100115.20;115490;1199;23286;-54
2021/04/11 04:19:27;;;;;;;53.10;25.85;;;;;;;2.78;68.38;100116.39;115443;1199;23104;-55
2021/04/11 04:22:21;;;;;;;50.55;23.65;;;;;;;2.79;68.05;100115.20;115229;1199;23917;-55
2021/04/11 04:25:01;;;;;;;56.10;25.00;;;;;;;2.81;68.09;100107.28;115639;1199;24284;-56
2021/04/11 04:27:41;;;;;;;46.45;23.00;;;;;;;2.84;68.48;100111.92;115246;1198;23131;-58
2021/04/11 04:30:20;;;;;;;45.00;21.90;;;;;;;2.85;68.10;100113.48;115691;1199;23321;-58
2021/04/11 04:33:21;;;;;;;47.57;22.43;;;;;;;2.90;67.95;100117.69;115480;1200;23119;-56
2021/04/11 04:35:59;;;;;;;49.35;22.45;;;;;;;2.95;68.24;100126.23;115502;1199;23118;-56
2021/04/11 04:38:37;;;;;;;51.90;22.87;;;;;;;2.98;68.53;100119.09;115597;1200;23141;-55
2021/04/11 04:41:15;;;;;;;47.95;23.70;;;;;;;3.03;68.38;100110.29;115494;1199;23109;-58
2021/04/11 04:43:55;;;;;;;48.50;23.50;;;;;;;3.07;68.47;100111.76;115604;1200;26316;-56
2021/04/11 04:46:34;;;;;;;49.00;22.47;;;;;;;3.13;69.09;100115.55;115589;1200;23176;-56
2021/04/11 04:49:11;;;;;;;49.00;23.30;;;;;;;3.18;69.10;100117.02;115442;1199;23138;-54
2021/04/11 04:51:46;;;;;;;47.57;23.00;;;;;;;3.24;69.50;100127.11;115594;1199;23194;-58
2021/04/11 04:54:26;;;;;;;54.20;25.60;;;;;;;3.29;69.85;100117.51;115546;1200;23135;-56
2021/04/11 04:56:59;;;;;;;53.40;23.30;;;;;;;3.37;69.98;100123.64;115437;1199;26402;-56
2021/04/11 04:59:35;;;;;;;51.50;23.60;;;;;;;3.44;69.81;100121.47;115559;1199;23103;-56
2021/04/11 05:02:09;;;;;;;54.90;26.20;;;;;;;3.52;70.08;100127.59;115617;1199;24450;-56
2021/04/11 05:04:42;;;;;;;62.40;26.00;;;;;;;3.59;70.30;100119.89;115774;1198;23131;-57
2021/04/11 05:07:14;;;;;;;55.00;24.80;;;;;;;3.67;70.20;100132.30;115675;1199;24565;-55
2021/04/11 05:09:48;;;;;;;51.85;25.05;;;;;;;3.75;69.97;100136.41;115760;1199;23108;-56
2021/04/11 05:12:24;;;;;;;52.90;24.37;;;;;;;3.82;69.75;100135.45;115583;1200;26563;-56
2021/04/11 05:14:58;;;;;;;54.07;25.43;;;;;;;3.88;70.05;100131.73;115603;1200;23144;-54
2021/04/11 05:17:30;;;;;;;54.65;24.85;;;;;;;3.96;69.93;100133.08;115482;1199;23139;-57
2021/04/11 05:20:03;;;;;;;49.85;23.55;;;;;;;4.03;70.08;100141.16;115436;1202;23267;-56
2021/04/11 05:22:36;;;;;;;56.70;24.90;;;;;;;4.08;70.28;100134.32;115517;1200;23152;-56
2021/04/11 05:25:10;;;;;;;51.20;23.30;;;;;;;4.15;69.73;100136.11;115526;1199;25006;-56
2021/04/11 05:27:52;;;;;;;49.10;23.73;;;;;;;4.20;70.06;100130.81;115507;1199;26310;-57
2021/04/11 05:30:26;;;;;;;51.63;23.20;;;;;;;4.27;70.05;100129.84;115572;1198;23141;-56
2021/04/11 05:32:55;;;;;;;49.23;22.60;;;;;;;4.33;70.10;100131.63;115542;1200;23247;-56
2021/04/11 05:35:25;;;;;;;46.70;23.63;;;;;;;4.41;70.12;100134.95;115462;1199;23643;-56
2021/04/11 05:38:06;;;;;;;52.97;24.20;;;;;;;4.46;70.02;100126.91;115509;1200;23261;-57
2021/04/11 05:40:40;;;;;;;48.55;22.33;;;;;;;4.52;70.13;100133.44;115545;1200;23135;-57
2021/04/11 05:43:17;;;;;;;49.30;24.45;;;;;;;4.57;70.14;100127.34;115510;1200;23197;-54
2021/04/11 05:45:55;;;;;;;57.90;29.70;;;;;;;4.65;70.52;100122.39;115736;1199;23173;-57
2021/04/11 05:48:31;;;;;;;53.40;25.17;;;;;;;4.73;70.65;100129.25;115478;1200;23124;-56
2021/04/11 05:51:03;;;;;;;54.83;23.40;;;;;;;4.82;70.64;100130.13;115516;1199;27329;-57
2021/04/11 05:53:36;;;;;;;53.00;23.80;;;;;;;4.91;70.55;100133.01;115547;1199;24639;-55
2021/04/11 05:56:11;;;;;;;50.30;23.20;;;;;;;5.02;71.00;100129.91;115483;1200;23115;-55
2021/04/11 05:58:45;;;;;;;46.85;21.75;;;;;;;5.14;71.09;100134.65;115637;1199;23112;-55
2021/04/11 06:01:17;;;;;;;62.85;32.30;;;;;;;5.23;70.87;100126.45;115513;1200;26248;-58
2021/04/11 06:03:57;;;;;;;102.40;56.40;;;;;;;5.36;70.93;100132.72;115580;1200;26147;-57
2021/04/11 06:06:31;;;;;;;70.63;40.53;;;;;;;5.47;70.92;100124.06;115541;1199;23115;-55
2021/04/11 06:09:05;;;;;;;58.30;33.35;;;;;;;5.59;70.99;100124.03;115598;1200;23158;-58
2021/04/11 06:11:42;;;;;;;52.30;25.33;;;;;;;5.72;70.85;100118.45;115381;1198;23118;-56
2021/04/11 06:14:18;;;;;;;39.90;20.30;;;;;;;5.84;70.75;100114.88;115353;1202;23180;-55
2021/04/11 06:16:49;;;;;;;45.10;18.20;;;;;;;5.97;70.88;100110.06;115452;1202;26329;-56
2021/04/11 06:19:19;;;;;;;38.30;18.10;;;;;;;6.10;70.81;100101.69;115487;1199;27537;-57
2021/04/11 06:22:02;;;;;;;40.25;18.25;;;;;;;6.21;70.73;100105.59;115461;1200;23116;-56
2021/04/11 06:24:46;;;;;;;40.40;16.25;;;;;;;6.36;70.51;100109.39;115429;1199;23115;-56
2021/04/11 06:27:32;;;;;;;34.65;15.95;;;;;;;6.51;70.44;100091.00;115455;1200;23183;-59
2021/04/11 06:30:09;;;;;;;37.20;15.33;;;;;;;6.68;70.40;100093.53;115469;1200;23175;-56
2021/04/11 06:32:45;;;;;;;36.80;14.93;;;;;;;6.86;70.36;100102.70;115448;1199;23135;-56
2021/04/11 06:35:18;;;;;;;36.05;15.55;;;;;;;7.02;70.51;100098.88;115462;1200;23121;-56
2021/04/11 06:37:52;;;;;;;32.03;13.43;;;;;;;7.24;70.22;100094.77;115382;1200;23114;-58
2021/04/11 06:40:37;;;;;;;29.00;10.40;;;;;;;7.50;69.71;100089.73;115555;1200;23267;-55
2021/04/11 06:43:26;;;;;;;27.10;9.13;;;;;;;7.82;69.28;100085.58;115420;1198;23205;-56
2021/04/11 06:46:06;;;;;;;31.35;8.05;;;;;;;8.07;68.69;100077.66;115364;1198;26230;-58
2021/04/11 06:49:08;;;;;;;21.40;7.07;;;;;;;8.31;68.57;100077.80;115509;1200;23149;-60
2021/04/11 06:52:14;;;;;;;18.90;7.00;;;;;;;8.57;67.89;100080.95;115455;1200;23115;-60
2021/04/11 06:55:14;;;;;;;19.00;5.90;;;;;;;8.77;67.67;100084.73;115246;1199;23131;-57
2021/04/11 06:57:55;;;;;;;20.95;7.80;;;;;;;9.00;67.03;100079.70;115527;1200;23099;-52
2021/04/11 07:00:46;;;;;;;18.70;4.90;;;;;;;9.21;66.13;100073.84;115534;1200;24379;-54
2021/04/11 07:03:32;;;;;;;;;;;;;;;9.41;66.04;100073.26;115482;1203;23118;-54
2021/04/11 07:06:32;;;;;;;15.50;4.60;;;;;;;9.57;65.55;100072.82;115394;1200;21582;-55
2021/04/11 07:09:39;;;;;;;20.27;4.60;;;;;;;9.76;65.58;100071.44;115504;1200;26916;-56
2021/04/11 07:12:42;;;;;;;18.85;6.35;;;;;;;9.95;65.50;100078.41;115462;1198;23257;-57
2021/04/11 07:15:40;;;;;;;15.83;3.90;;;;;;;10.09;64.33;100063.70;115424;1200;23114;-56
2021/04/11 07:18:44;;;;;;;16.60;4.10;;;;;;;10.31;63.99;100066.12;115408;1199;27396;-55
2021/04/11 07:21:39;;;;;;;18.43;4.03;;;;;;;10.46;63.87;100070.45;115388;1199;23226;-56
2021/04/11 07:24:40;;;;;;;13.70;2.40;;;;;;;10.62;63.17;100060.80;115537;1199;23231;-56
2021/04/11 07:27:24;;;;;;;17.45;3.50;;;;;;;10.83;63.33;100070.00;115425;1203;25057;-56
2021/04/11 07:30:08;;;;;;;15.33;2.97;;;;;;;10.98;62.48;100057.55;115345;1200;23321;-56
2021/04/11 07:33:12;;;;;;;10.60;2.53;;;;;;;11.15;62.07;100066.17;115674;1199;26386;-59
2021/04/11 07:35:52;;;;;;;11.50;1.90;;;;;;;11.35;61.04;100060.59;115194;1202;23140;-56
2021/04/11 07:38:48;;;;;;;14.55;3.00;;;;;;;11.48;60.76;100063.03;115072;1202;23132;-57
2021/04/11 07:41:48;;;;;;;15.00;3.43;;;;;;;11.61;60.34;100050.23;115022;1202;26345;-59
2021/04/11 07:44:45;;;;;;;15.53;3.97;;;;;;;11.76;60.59;100056.55;115294;1202;23159;-57
2021/04/11 07:47:30;;;;;;;10.95;3.00;;;;;;;11.86;60.30;100045.95;115235;1202;23186;-58
2021/04/11 07:50:29;;;;;;;17.60;2.40;;;;;;;11.96;59.76;100048.11;114940;1203;23143;-57
2021/04/11 07:53:31;;;;;;;16.90;2.60;;;;;;;12.11;59.26;100051.57;115137;1203;23118;-59
2021/04/11 07:56:17;;;;;;;13.80;2.80;;;;;;;12.25;59.19;100052.70;115181;1203;27518;-58
2021/04/11 07:58:58;;;;;;;10.55;2.30;;;;;;;12.31;58.05;100045.13;115200;1201;24874;-57
2021/04/11 08:01:59;;;;;;;10.75;2.15;;;;;;;12.39;57.15;100043.44;115180;1202;23122;-57
2021/04/11 08:04:53;;;;;;;11.97;1.87;;;;;;;12.52;57.58;100057.03;114988;1203;23372;-59
2021/04/11 08:07:36;;;;;;;12.30;3.15;;;;;;;12.62;57.71;100047.92;115038;1203;23263;-55
2021/04/11 08:10:18;;;;;;;14.37;2.93;;;;;;;12.75;56.72;100048.28;115239;1202;23131;-58
2021/04/11 08:13:04;;;;;;;12.65;2.70;;;;;;;12.87;56.59;100040.71;115537;1199;23163;-57
2021/04/11 08:15:42;;;;;;;10.55;2.20;;;;;;;12.93;56.14;100044.34;115400;1199;24743;-57
2021/04/11 08:18:58;;;;;;;11.25;2.65;;;;;;;12.98;55.90;100038.77;115479;1200;23114;-59
2021/04/11 08:21:33;;;;;;;16.05;2.85;;;;;;;13.09;55.78;100034.52;115166;1203;23228;-57
2021/04/11 08:24:28;;;;;;;12.23;2.77;;;;;;;13.16;54.64;100029.20;115314;1203;24901;-54
2021/04/11 08:27:46;;;;;;;14.80;2.70;;;;;;;13.27;55.48;100028.48;115208;1202;23189;-59
2021/04/11 08:30:34;;;;;;;10.15;1.80;;;;;;;13.40;53.82;100029.58;115055;1203;23231;-58
2021/04/11 08:33:29;;;;;;;12.95;2.40;;;;;;;13.48;54.73;100038.27;114868;1203;23317;-58
2021/04/11 08:36:47;;;;;;;12.05;2.10;;;;;;;13.56;54.07;100033.70;114847;1203;23150;-57
2021/04/11 08:39:50;;;;;;;11.40;2.70;;;;;;;13.67;54.15;100025.34;114880;1203;23153;-59
2021/04/11 08:42:41;;;;;;;9.00;1.50;;;;;;;13.80;53.46;100023.58;114816;1203;23143;-59
2021/04/11 08:45:27;;;;;;;9.60;1.30;;;;;;;13.90;53.59;100040.20;114952;1203;23150;-57
2021/04/11 08:48:11;;;;;;;5.05;0.95;;;;;;;13.99;52.44;100029.48;114818;1203;28545;-58
2021/04/11 08:50:50;;;;;;;6.70;1.40;;;;;;;14.11;51.93;100021.87;114851;1203;23138;-59
2021/04/11 08:53:33;;;;;;;8.30;1.50;;;;;;;14.15;52.24;100028.00;115215;1203;23164;-58
2021/04/11 08:56:07;;;;;;;7.95;1.20;;;;;;;14.25;52.01;100032.86;115221;1203;23205;-60
2021/04/11 08:58:45;;;;;;;7.70;1.10;;;;;;;14.34;51.94;100031.84;115432;1203;23133;-60
2021/04/11 09:01:31;;;;;;;9.10;1.40;;;;;;;14.44;51.46;100031.08;115303;1203;26335;-59
2021/04/11 09:04:13;;;;;;;7.20;1.20;;;;;;;14.50;51.46;100031.84;115334;1202;24996;-60
2021/04/11 09:07:00;;;;;;;4.10;0.90;;;;;;;14.61;50.46;100036.70;115128;1200;23111;-57
2021/04/11 09:09:44;;;;;;;6.30;1.00;;;;;;;14.75;49.85;100030.06;115334;1199;28320;-58
2021/04/11 09:12:25;;;;;;;6.25;1.40;;;;;;;14.86;50.47;100030.03;115238;1199;23193;-66
2021/04/11 09:15:05;;;;;;;12.25;1.00;;;;;;;14.93;49.43;100021.09;115278;1199;23147;-68
2021/04/11 09:17:51;;;;;;;5.60;1.30;;;;;;;14.99;49.48;100027.45;115766;1199;23242;-64
2021/04/11 09:20:26;;;;;;;8.00;1.10;;;;;;;15.05;49.32;100021.81;115276;1200;23108;-61
2021/04/11 09:23:16;;;;;;;11.70;2.20;;;;;;;15.11;49.68;100016.94;115416;1202;25632;-60
2021/04/11 09:25:54;;;;;;;9.20;1.70;;;;;;;15.16;49.26;100025.38;115399;1200;23087;-60
2021/04/11 09:28:47;;;;;;;5.55;1.10;;;;;;;15.22;48.55;100019.73;115553;1199;26038;-61
2021/04/11 09:31:58;;;;;;;4.97;0.97;;;;;;;15.24;48.45;100011.54;115975;1200;24196;-61
2021/04/11 09:34:57;;;;;;;9.10;1.30;;;;;;;15.27;48.38;100002.82;118529;1199;22949;-61
2021/04/11 09:37:55;;;;;;;11.57;1.27;;;;;;;15.40;48.70;100002.27;118533;1199;22852;-61
2021/04/11 09:40:39;;;;;;;6.15;1.00;;;;;;;15.55;47.98;100007.59;118550;1198;22849;-59
2021/04/11 09:43:26;;;;;;;6.15;1.40;;;;;;;15.69;48.38;99998.05;118545;1198;22875;-58
2021/04/11 09:46:20;;;;;;;9.10;1.50;;;;;;;15.76;47.71;99998.28;118541;1199;23583;-59
2021/04/11 09:49:05;;;;;;;8.10;1.20;;;;;;;15.86;46.81;99999.50;118590;1202;22843;-59
2021/04/11 09:51:56;;;;;;;6.05;1.00;;;;;;;15.92;46.93;99991.78;118550;1199;22786;-58
2021/04/11 09:54:37;;;;;;;8.05;1.50;;;;;;;16.00;46.94;99973.03;118534;1198;22883;-59
2021/04/11 09:57:27;;;;;;;9.50;1.20;;;;;;;16.09;47.24;99967.09;118562;1197;22819;-58
2021/04/11 10:00:13;;;;;;;5.48;1.20;;;;;;;16.12;46.77;99968.84;116673;1198;23265;-58
2021/04/11 10:03:08;;;;;;;4.75;1.20;;;;;;;16.10;46.04;99962.20;115596;1199;23127;-57
2021/04/11 10:05:46;;;;;;;10.65;1.25;;;;;;;16.12;47.02;99960.39;115695;1200;23145;-60
2021/04/11 10:08:55;;;;;;;6.60;0.90;;;;;;;16.17;46.37;99968.05;115591;1199;23314;-58
2021/04/11 10:11:36;;;;;;;6.90;1.20;;;;;;;16.25;45.97;99964.64;117251;1203;23136;-58
2021/04/11 10:14:24;;;;;;;5.10;1.10;;;;;;;16.30;46.21;99961.03;115246;1202;24930;-58
2021/04/11 10:17:02;;;;;;;7.20;1.30;;;;;;;16.32;46.07;99964.08;115048;1200;23258;-66
2021/04/11 10:19:44;;;;;;;10.05;1.10;;;;;;;16.35;45.88;99963.79;114765;1200;28383;-59
2021/04/11 10:22:31;;;;;;;5.90;1.20;;;;;;;16.37;45.53;99955.57;118374;1200;22878;-59
2021/04/11 10:25:16;;;;;;;9.75;1.60;;;;;;;16.39;45.33;99955.81;118394;1200;22858;-59
2021/04/11 10:27:54;;;;;;;9.20;1.30;;;;;;;16.45;45.26;99961.41;118381;1200;22932;-59
2021/04/11 10:30:24;;;;;;;7.40;1.20;;;;;;;16.53;45.36;99951.86;118418;1200;22816;-62
2021/04/11 10:32:58;;;;;;;7.43;1.30;;;;;;;16.60;45.07;99953.33;118389;1200;22913;-59
2021/04/11 10:35:31;;;;;;;6.60;1.10;;;;;;;16.62;44.95;99957.16;118422;1200;22884;-60
2021/04/11 10:38:04;;;;;;;5.40;0.90;;;;;;;16.68;44.82;99940.19;118375;1200;22789;-60
2021/04/11 10:40:52;;;;;;;5.75;1.30;;;;;;;16.73;44.77;99950.65;118327;1199;22887;-60
2021/04/11 10:43:35;;;;;;;8.40;1.00;;;;;;;16.73;43.99;99945.01;118406;1200;22948;-61
2021/04/11 10:46:11;;;;;;;6.65;0.80;;;;;;;16.68;43.83;99951.45;118406;1200;22831;-59
2021/04/11 10:49:09;;;;;;;4.95;0.85;;;;;;;16.63;43.68;99953.06;118534;1202;23860;-59
2021/04/11 10:52:09;;;;;;;5.20;1.10;;;;;;;16.62;43.74;99954.34;118551;1198;22863;-59
2021/04/11 10:55:03;;;;;;;5.30;0.90;;;;;;;16.61;44.10;99954.88;117731;1203;23133;-58
2021/04/11 10:57:52;;;;;;;5.15;0.85;;;;;;;16.62;44.18;99953.57;115274;1203;23186;-58
2021/04/11 11:00:31;;;;;;;3.07;0.70;;;;;;;16.62;44.03;99953.57;115136;1201;23388;-58
2021/04/11 11:03:42;;;;;;;3.85;0.90;;;;;;;16.59;44.27;99949.77;115642;1203;23124;-57
2021/04/11 11:06:46;;;;;;;3.30;0.85;;;;;;;16.55;44.11;99946.45;115195;1203;23124;-57
2021/04/11 11:09:32;;;;;;;4.00;0.70;;;;;;;16.55;43.88;99948.53;115359;1202;23186;-59
2021/04/11 11:12:23;;;;;;;6.20;1.20;;;;;;;16.58;44.45;99947.47;115199;1203;23140;-57
2021/04/11 11:15:30;;;;;;;4.30;0.90;;;;;;;16.58;44.28;99942.59;115347;1202;23131;-59
2021/04/11 11:18:27;;;;;;;3.20;0.70;;;;;;;16.58;44.25;99945.41;115268;1203;23456;-57
2021/04/11 11:21:09;;;;;;;4.60;0.90;;;;;;;16.57;44.22;99935.45;115249;1205;23121;-60
2021/04/11 11:24:13;;;;;;;4.80;1.30;;;;;;;16.55;43.97;99937.27;115186;1202;26110;-58
2021/04/11 11:27:34;;;;;;;5.60;0.80;;;;;;;16.56;44.06;99933.91;115391;1203;24562;-62
2021/04/11 11:30:21;;;;;;;3.95;0.95;;;;;;;16.52;44.07;99933.44;114927;1202;23188;-60
2021/04/11 11:33:11;;;;;;;7.70;1.40;;;;;;;16.51;44.01;99942.43;115255;1203;23143;-60
2021/04/11 11:36:00;;;;;;;5.60;0.90;;;;;;;16.49;44.10;99934.48;115194;1201;27307;-60
2021/04/11 11:38:40;;;;;;;4.10;0.95;;;;;;;16.49;43.83;99933.70;115270;1203;23234;-60
2021/04/11 11:41:15;;;;;;;4.33;1.10;;;;;;;16.46;43.84;99935.52;115417;1202;23174;-60
2021/04/11 11:43:54;;;;;;;9.37;1.07;;;;;;;16.43;43.94;99938.64;115474;1205;23117;-59
2021/04/11 11:46:40;;;;;;;5.90;1.10;;;;;;;16.40;43.49;99934.81;115644;1202;23093;-59
2021/04/11 11:49:19;;;;;;;5.50;0.70;;;;;;;16.36;44.18;99937.16;115094;1201;23330;-63
2021/04/11 11:52:00;;;;;;;6.15;1.00;;;;;;;16.34;44.01;99934.10;115308;1201;24812;-61
2021/04/11 11:54:35;;;;;;;5.45;0.90;;;;;;;16.32;44.22;99938.73;115730;1202;25991;-59
2021/04/11 11:57:13;;;;;;;5.60;1.00;;;;;;;16.29;44.30;99929.27;115374;1203;23127;-59
2021/04/11 11:59:47;;;;;;;3.70;0.80;;;;;;;16.30;44.68;99936.45;115424;1203;26256;-60
2021/04/11 12:02:29;;;;;;;7.43;0.70;;;;;;;16.31;44.62;99921.06;115148;1205;23151;-62
2021/04/11 12:05:04;;;;;;;9.50;1.30;;;;;;;16.31;44.87;99937.95;115273;1203;26284;-61
2021/04/11 12:07:43;;;;;;;6.30;1.00;;;;;;;16.32;44.72;99921.83;115416;1199;23091;-60
2021/04/11 12:10:31;;;;;;;6.20;1.00;;;;;;;16.29;44.68;99920.05;115682;1199;23246;-61
2021/04/11 12:13:26;;;;;;;10.33;0.90;;;;;;;16.29;44.86;99926.45;115619;1199;23189;-59